createdAt,value
2022-09-03T00:00:06.212Z,51.00
2022-09-03T00:02:49.516Z,64.00
2022-09-03T00:05:32.301Z,60.40
2022-09-03T00:08:27.057Z,51.80
2022-09-03T00:11:19.408Z,52.00
2022-09-03T00:14:13.180Z,52.80
2022-09-03T00:17:01.748Z,49.00
2022-09-03T00:19:57.696Z,51.80
2022-09-03T00:22:36.016Z,52.40
2022-09-03T00:25:18.143Z,52.80
2022-09-03T00:27:53.197Z,51.20
2022-09-03T00:30:28.739Z,52.00
2022-09-03T00:33:22.202Z,52.00
2022-09-03T00:36:14.295Z,49.80
2022-09-03T00:38:54.970Z,49.80
2022-09-03T00:41:47.829Z,51.20
2022-09-03T00:44:26.932Z,51.00
2022-09-03T00:47:02.589Z,53.00
2022-09-03T00:49:43.914Z,51.80
2022-09-03T00:52:36.323Z,52.40
2022-09-03T00:55:35.573Z,50.20
2022-09-03T00:58:21.353Z,49.00
2022-09-03T01:00:59.306Z,51.00
2022-09-03T01:03:59.070Z,55.00
2022-09-03T01:06:55.909Z,51.00
2022-09-03T01:09:49.371Z,53.20
2022-09-03T01:12:26.375Z,52.00
2022-09-03T01:15:30.985Z,51.00
2022-09-03T01:18:22.401Z,52.00
2022-09-03T01:21:12.262Z,50.20
2022-09-03T01:24:07.708Z,50.60
2022-09-03T01:26:40.772Z,51.40
2022-09-03T01:29:30.244Z,51.80
2022-09-03T01:32:25.298Z,49.40
2022-09-03T01:35:19.292Z,52.40
2022-09-03T01:38:31.525Z,52.00
2022-09-03T01:41:26.820Z,51.00
2022-09-03T01:44:12.627Z,52.00
2022-09-03T01:46:52.069Z,51.60
2022-09-03T01:49:42.129Z,49.80
2022-09-03T01:52:46.161Z,49.00
2022-09-03T01:55:28.493Z,49.00
2022-09-03T01:58:17.540Z,52.40
2022-09-03T02:00:57.100Z,51.00
2022-09-03T02:03:40.757Z,49.40
2022-09-03T02:06:21.233Z,52.00
2022-09-03T02:08:56.678Z,62.80
2022-09-03T02:11:32.476Z,52.00
2022-09-03T02:14:04.847Z,51.80
2022-09-03T02:16:40.943Z,48.40
2022-09-03T02:19:19.266Z,49.00
2022-09-03T02:21:57.735Z,49.00
2022-09-03T02:24:34.571Z,50.60
2022-09-03T02:27:06.546Z,49.00
2022-09-03T02:29:39.263Z,48.80
2022-09-03T02:32:09.379Z,50.60
2022-09-03T02:34:46.093Z,49.00
2022-09-03T02:37:20.552Z,54.00
2022-09-03T02:39:55.860Z,50.00
2022-09-03T02:42:28.347Z,52.20
2022-09-03T02:45:16.614Z,49.80
2022-09-03T02:47:55.636Z,51.20
2022-09-03T02:50:36.907Z,49.00
2022-09-03T02:53:09.305Z,52.00
2022-09-03T02:55:41.429Z,52.00
2022-09-03T02:58:09.699Z,52.20
2022-09-03T03:00:42.358Z,51.40
2022-09-03T03:03:17.646Z,49.00
2022-09-03T03:05:55.880Z,51.40
2022-09-03T03:08:39.728Z,49.00
2022-09-03T03:11:14.362Z,52.00
2022-09-03T03:13:49.419Z,49.00
2022-09-03T03:16:18.977Z,49.00
2022-09-03T03:18:53.115Z,49.00
2022-09-03T03:21:28.193Z,49.00
2022-09-03T03:24:00.805Z,52.00
2022-09-03T03:26:35.685Z,49.40
2022-09-03T03:29:08.147Z,49.00
2022-09-03T03:31:43.940Z,50.60
2022-09-03T03:34:18.685Z,59.80
2022-09-03T03:36:56.410Z,52.40
2022-09-03T03:39:31.034Z,51.40
2022-09-03T03:42:00.616Z,48.60
2022-09-03T03:44:35.588Z,53.00
2022-09-03T03:47:11.213Z,50.00
2022-09-03T03:49:49.881Z,49.00
2022-09-03T03:52:30.868Z,49.00
2022-09-03T03:55:08.097Z,51.00
2022-09-03T03:57:52.840Z,49.00
2022-09-03T04:00:28.412Z,51.40
2022-09-03T04:03:03.642Z,49.00
2022-09-03T04:05:46.206Z,49.00
2022-09-03T04:08:20.664Z,48.60
2022-09-03T04:10:50.973Z,49.00
2022-09-03T04:13:23.751Z,49.00
2022-09-03T04:16:07.740Z,49.40
2022-09-03T04:18:43.793Z,49.00
2022-09-03T04:21:23.687Z,50.40
2022-09-03T04:23:59.297Z,49.00
2022-09-03T04:26:36.012Z,48.60
2022-09-03T04:29:12.408Z,49.00
2022-09-03T04:32:06.462Z,49.00
2022-09-03T04:34:41.571Z,48.20
2022-09-03T04:37:20.724Z,50.00
2022-09-03T04:39:54.664Z,49.00
2022-09-03T04:42:28.367Z,55.60
2022-09-03T04:45:00.747Z,48.60
2022-09-03T04:47:40.363Z,49.00
2022-09-03T04:50:18.567Z,49.00
2022-09-03T04:52:50.934Z,49.00
2022-09-03T04:55:29.705Z,50.20
2022-09-03T04:58:03.181Z,50.60
2022-09-03T05:00:37.424Z,49.40
2022-09-03T05:03:13.420Z,49.00
2022-09-03T05:06:02.151Z,49.00
2022-09-03T05:08:38.124Z,49.00
2022-09-03T05:11:12.647Z,48.20
2022-09-03T05:13:44.358Z,49.00
2022-09-03T05:16:18.323Z,60.00
2022-09-03T05:19:00.033Z,49.40
2022-09-03T05:21:41.640Z,52.20
2022-09-03T05:24:33.496Z,49.80
2022-09-03T05:27:06.641Z,51.00
2022-09-03T05:29:42.268Z,48.40
2022-09-03T05:32:32.611Z,49.00
2022-09-03T05:35:08.047Z,49.00
2022-09-03T05:37:40.622Z,49.00
2022-09-03T05:40:17.182Z,51.60
2022-09-03T05:43:08.656Z,51.80
2022-09-03T05:46:02.641Z,49.40
2022-09-03T05:48:31.316Z,51.00
2022-09-03T05:51:08.696Z,51.20
2022-09-03T05:53:40.675Z,49.00
2022-09-03T05:56:12.919Z,48.80
2022-09-03T05:58:51.494Z,51.40
2022-09-03T06:01:30.320Z,49.00
2022-09-03T06:04:17.167Z,49.40
2022-09-03T06:06:53.605Z,50.00
2022-09-03T06:09:26.040Z,50.60
2022-09-03T06:11:54.649Z,48.20
2022-09-03T06:14:25.664Z,65.60
2022-09-03T06:16:53.432Z,51.00
2022-09-03T06:19:22.593Z,49.80
2022-09-03T06:21:50.122Z,49.00
2022-09-03T06:24:20.398Z,49.00
2022-09-03T06:26:48.446Z,49.00
2022-09-03T06:29:20.499Z,50.20
2022-09-03T06:31:51.292Z,48.20
2022-09-03T06:34:27.126Z,49.40
2022-09-03T06:36:54.851Z,49.00
2022-09-03T06:39:22.696Z,51.00
2022-09-03T06:41:52.472Z,49.40
2022-09-03T06:44:21.887Z,52.80
2022-09-03T06:46:49.172Z,49.00
2022-09-03T06:49:17.926Z,52.00
2022-09-03T06:51:54.055Z,64.00
2022-09-03T06:54:21.414Z,49.40
2022-09-03T06:56:50.973Z,49.80
2022-09-03T06:59:18.210Z,49.00
2022-09-03T07:01:46.669Z,48.00
2022-09-03T07:04:19.460Z,49.00
2022-09-03T07:06:48.204Z,50.00
2022-09-03T07:09:18.514Z,48.00
2022-09-03T07:11:49.989Z,48.20
2022-09-03T07:14:19.258Z,49.00
2022-09-03T07:16:48.303Z,51.40
2022-09-03T07:19:18.455Z,49.00
2022-09-03T07:21:50.121Z,49.00
2022-09-03T07:24:23.334Z,48.00
2022-09-03T07:26:53.634Z,48.80
2022-09-03T07:29:22.205Z,48.00
2022-09-03T07:31:55.699Z,51.00
2022-09-03T07:34:28.676Z,49.00
2022-09-03T07:37:06.044Z,49.40
2022-09-03T07:39:34.783Z,51.20
2022-09-03T07:42:02.694Z,49.00
2022-09-03T07:44:47.964Z,45.60
2022-09-03T07:47:27.576Z,49.40
2022-09-03T07:49:54.855Z,49.00
2022-09-03T07:52:34.931Z,52.00
2022-09-03T07:55:13.278Z,49.40
2022-09-03T07:57:41.782Z,49.00
2022-09-03T08:00:10.397Z,48.60
2022-09-03T08:02:37.918Z,49.00
2022-09-03T08:05:15.522Z,50.20
2022-09-03T08:07:51.330Z,49.80
2022-09-03T08:10:36.406Z,48.00
2022-09-03T08:13:15.847Z,50.60
2022-09-03T08:16:24.147Z,48.00
2022-09-03T08:19:19.766Z,49.00
2022-09-03T08:22:08.492Z,49.00
2022-09-03T08:24:42.419Z,48.60
2022-09-03T08:27:28.259Z,49.60
2022-09-03T08:29:56.211Z,52.00
2022-09-03T08:32:23.448Z,48.80
2022-09-03T08:34:52.976Z,58.80
2022-09-03T08:37:40.738Z,51.00
2022-09-03T08:40:09.332Z,49.00
2022-09-03T08:43:35.408Z,49.00
2022-09-03T08:46:10.944Z,49.00
2022-09-03T08:49:02.091Z,49.40
2022-09-03T08:51:32.335Z,49.00
2022-09-03T08:54:06.769Z,48.00
2022-09-03T08:56:42.400Z,49.00
2022-09-03T08:59:17.427Z,49.00
2022-09-03T09:02:00.523Z,52.00
2022-09-03T09:04:53.228Z,52.00
2022-09-03T09:07:43.714Z,50.00
2022-09-03T09:10:19.548Z,51.60
2022-09-03T09:13:52.639Z,52.80
2022-09-03T09:16:52.573Z,52.00
2022-09-03T09:19:40.419Z,51.40
2022-09-03T09:22:51.580Z,52.00
2022-09-03T09:25:26.519Z,52.00
2022-09-03T09:28:02.974Z,52.40
2022-09-03T09:30:34.619Z,52.00
2022-09-03T09:33:02.182Z,64.60
2022-09-03T09:35:29.565Z,52.00
2022-09-03T09:38:00.666Z,54.00
2022-09-03T09:40:33.530Z,52.00
2022-09-03T09:43:22.004Z,52.00
2022-09-03T09:46:06.747Z,51.60
2022-09-03T09:48:40.244Z,54.00
2022-09-03T09:51:34.304Z,52.40
2022-09-03T09:54:12.978Z,52.00
2022-09-03T09:56:46.179Z,52.00
2022-09-03T09:59:15.631Z,52.00
2022-09-03T10:01:48.382Z,54.40
2022-09-03T10:04:32.980Z,49.00
2022-09-03T10:07:24.405Z,51.20
2022-09-03T10:10:08.503Z,59.40
2022-09-03T10:12:44.840Z,52.00
2022-09-03T10:15:25.245Z,51.00
2022-09-03T10:18:14.326Z,52.00
2022-09-03T10:21:23.310Z,52.00
2022-09-03T10:24:07.249Z,54.00
2022-09-03T10:26:45.298Z,52.80
2022-09-03T10:29:30.568Z,52.00
2022-09-03T10:32:27.458Z,53.00
2022-09-03T10:35:46.156Z,52.00
2022-09-03T10:38:53.451Z,54.40
2022-09-03T10:42:11.525Z,52.80
2022-09-03T10:45:11.592Z,60.00
2022-09-03T10:47:58.431Z,54.20
2022-09-03T10:50:37.044Z,54.40
2022-09-03T10:53:32.826Z,52.00
2022-09-03T10:56:13.261Z,54.80
2022-09-03T10:59:17.306Z,54.00
2022-09-03T11:02:15.580Z,54.80
2022-09-03T11:05:01.107Z,55.00
2022-09-03T11:07:42.094Z,55.80
2022-09-03T11:10:17.931Z,54.80
2022-09-03T11:12:56.445Z,55.00
2022-09-03T11:15:51.971Z,55.00
2022-09-03T11:19:06.534Z,54.00
2022-09-03T11:21:46.196Z,55.00
2022-09-03T11:24:27.294Z,60.80
2022-09-03T11:27:21.704Z,57.00
2022-09-03T11:30:23.733Z,57.60
2022-09-03T11:33:06.021Z,57.20
2022-09-03T11:35:35.824Z,57.80
2022-09-03T11:38:06.518Z,57.00
2022-09-03T11:40:40.949Z,57.00
2022-09-03T11:43:14.801Z,57.00
2022-09-03T11:45:45.083Z,58.00
2022-09-03T11:48:44.452Z,59.00
2022-09-03T11:51:43.078Z,55.40
2022-09-03T11:54:35.980Z,61.60
2022-09-03T11:57:12.581Z,58.00
2022-09-03T11:59:43.294Z,57.40
2022-09-03T12:02:31.654Z,57.00
2022-09-03T12:05:49.834Z,58.00
2022-09-03T12:08:31.893Z,58.00
2022-09-03T12:11:01.888Z,57.60
2022-09-03T12:13:48.693Z,60.40
2022-09-03T12:16:32.702Z,58.00
2022-09-03T12:19:32.704Z,60.00
2022-09-03T12:22:06.050Z,63.20
2022-09-03T12:24:38.215Z,60.00
2022-09-03T12:27:14.051Z,58.80
2022-09-03T12:29:58.410Z,60.00
2022-09-03T12:32:27.304Z,62.80
2022-09-03T12:34:55.027Z,60.40
2022-09-03T12:40:19.211Z,57.60
2022-09-03T12:42:46.945Z,57.20
2022-09-03T12:45:16.740Z,59.20
2022-09-03T12:47:45.379Z,60.60
2022-09-03T12:50:16.867Z,58.00
2022-09-03T12:52:57.508Z,58.00
2022-09-03T12:55:42.894Z,60.20
2022-09-03T12:58:48.665Z,60.00
2022-09-03T13:01:22.893Z,59.20
2022-09-03T13:04:04.825Z,58.80
2022-09-03T13:06:57.027Z,61.80
2022-09-03T13:09:30.368Z,60.00
2022-09-03T13:11:59.477Z,61.00
2022-09-03T13:14:27.917Z,60.20
2022-09-03T13:17:19.582Z,61.00
2022-09-03T13:20:11.521Z,60.00
2022-09-03T13:23:01.607Z,61.40
2022-09-03T13:25:49.308Z,63.00
2022-09-03T13:29:01.486Z,58.00
2022-09-03T13:32:06.284Z,61.80
2022-09-03T13:34:50.831Z,60.40
2022-09-03T13:37:32.957Z,60.40
2022-09-03T13:40:16.259Z,63.00
2022-09-03T13:42:53.482Z,61.00
2022-09-03T13:45:32.385Z,61.80
2022-09-03T13:48:52.384Z,63.00
2022-09-03T13:51:40.923Z,60.40
2022-09-03T13:54:42.541Z,60.40
2022-09-03T13:57:27.391Z,60.20
2022-09-03T14:00:12.914Z,60.20
2022-09-03T14:02:50.034Z,60.20
2022-09-03T14:05:34.745Z,60.00
2022-09-03T14:08:34.665Z,60.00
2022-09-03T14:11:47.787Z,61.00
2022-09-03T14:14:35.686Z,60.60
2022-09-03T14:17:12.904Z,60.60
2022-09-03T14:19:52.042Z,59.20
2022-09-03T14:22:29.595Z,58.00
2022-09-03T14:25:03.223Z,58.80
2022-09-03T14:27:32.681Z,57.60
2022-09-03T14:30:16.658Z,58.00
2022-09-03T14:33:04.457Z,57.00
2022-09-03T14:35:50.089Z,57.00
2022-09-03T14:38:54.572Z,57.00
2022-09-03T14:41:54.305Z,55.00
2022-09-03T14:44:46.373Z,56.20
2022-09-03T14:47:43.679Z,64.40
2022-09-03T14:50:22.710Z,55.40
2022-09-03T14:53:16.658Z,54.20
2022-09-03T14:56:17.573Z,52.00
2022-09-03T14:58:59.831Z,54.00
2022-09-03T15:02:09.899Z,54.80
2022-09-03T15:05:36.269Z,54.00
2022-09-03T15:08:18.503Z,54.60
2022-09-03T15:10:59.799Z,54.00
2022-09-03T15:13:35.160Z,61.20
2022-09-03T15:16:45.105Z,54.00
2022-09-03T15:19:44.192Z,54.80
2022-09-03T15:22:32.630Z,54.40
2022-09-03T15:26:08.005Z,54.20
2022-09-03T15:29:02.204Z,56.60
2022-09-03T15:32:01.486Z,55.00
2022-09-03T15:34:54.914Z,54.00
2022-09-03T15:37:29.355Z,54.00
2022-09-03T15:40:25.562Z,53.60
2022-09-03T15:43:06.424Z,54.00
2022-09-03T15:45:59.508Z,54.00
2022-09-03T15:48:48.752Z,54.20
2022-09-03T15:51:29.198Z,54.20
2022-09-03T15:54:05.516Z,54.00
2022-09-03T15:57:03.777Z,59.20
2022-09-03T16:00:15.212Z,52.40
2022-09-03T16:03:23.149Z,54.00
2022-09-03T16:06:07.459Z,54.80
2022-09-03T16:09:25.348Z,55.40
2022-09-03T16:12:10.465Z,54.00
2022-09-03T16:15:13.059Z,52.40
2022-09-03T16:17:55.825Z,54.00
2022-09-03T16:20:37.932Z,55.00
2022-09-03T16:23:21.485Z,56.00
2022-09-03T16:26:16.366Z,52.80
2022-09-03T16:28:54.368Z,54.20
2022-09-03T16:31:58.426Z,55.00
2022-09-03T16:35:00.021Z,54.20
2022-09-03T16:38:05.404Z,56.80
2022-09-03T16:41:11.968Z,54.00
2022-09-03T16:44:19.842Z,55.40
2022-09-03T16:47:05.043Z,57.00
2022-09-03T16:49:57.456Z,55.00
2022-09-03T16:53:00.167Z,55.00
2022-09-03T16:56:04.974Z,54.00
2022-09-03T16:58:52.684Z,54.00
2022-09-03T17:01:26.873Z,54.80
2022-09-03T17:04:30.515Z,53.20
2022-09-03T17:07:26.650Z,55.00
2022-09-03T17:10:32.715Z,57.00
2022-09-03T17:13:20.162Z,54.00
2022-09-03T17:16:25.254Z,55.00
2022-09-03T17:19:19.876Z,55.80
2022-09-03T17:22:20.217Z,54.00
2022-09-03T17:25:06.698Z,52.00
2022-09-03T17:28:26.563Z,54.40
2022-09-03T17:31:11.227Z,54.00
2022-09-03T17:33:48.088Z,52.00
2022-09-03T17:36:27.982Z,52.00
2022-09-03T17:39:17.724Z,52.40
2022-09-03T17:42:09.601Z,55.00
2022-09-03T17:44:55.999Z,55.60
2022-09-03T17:47:38.832Z,52.80
2022-09-03T17:50:14.959Z,52.00
2022-09-03T17:52:50.072Z,56.80
2022-09-03T17:55:38.017Z,52.00
2022-09-03T17:58:14.841Z,52.80
2022-09-03T18:01:16.339Z,52.40
2022-09-03T18:04:05.258Z,52.00
2022-09-03T18:07:09.478Z,52.40
2022-09-03T18:10:00.551Z,51.80
2022-09-03T18:12:40.834Z,51.80
2022-09-03T18:15:11.896Z,53.20
2022-09-03T18:17:59.046Z,53.60
2022-09-03T18:21:03.133Z,51.40
2022-09-03T18:24:04.383Z,52.40
2022-09-03T18:26:58.724Z,51.00
2022-09-03T18:30:12.697Z,52.00
2022-09-03T18:33:02.489Z,52.40
2022-09-03T18:35:50.818Z,51.40
2022-09-03T18:38:43.875Z,52.40
2022-09-03T18:41:48.604Z,51.80
2022-09-03T18:45:18.724Z,52.80
2022-09-03T18:48:17.906Z,52.00
2022-09-03T18:51:10.315Z,51.60
2022-09-03T18:54:21.428Z,54.00
2022-09-03T18:57:09.726Z,52.00
2022-09-03T19:00:29.072Z,51.60
2022-09-03T19:03:52.941Z,60.60
2022-09-03T19:07:27.419Z,52.00
2022-09-03T19:10:21.876Z,52.00
2022-09-03T19:13:16.926Z,49.00
2022-09-03T19:16:19.397Z,49.00
2022-09-03T19:19:26.215Z,55.20
2022-09-03T19:22:38.573Z,52.80
2022-09-03T19:25:30.242Z,52.00
2022-09-03T19:28:25.760Z,50.80
2022-09-03T19:31:20.732Z,53.60
2022-09-03T19:34:19.851Z,50.60
2022-09-03T19:37:44.317Z,52.80
2022-09-03T19:40:43.624Z,54.00
2022-09-03T19:44:03.316Z,53.20
2022-09-03T19:46:56.454Z,53.20
2022-09-03T19:50:34.815Z,50.80
2022-09-03T19:53:27.657Z,49.80
2022-09-03T19:56:34.175Z,51.20
2022-09-03T19:59:25.807Z,51.00
2022-09-03T20:02:11.766Z,52.40
2022-09-03T20:05:06.541Z,52.00
2022-09-03T20:07:57.431Z,51.00
2022-09-03T20:10:28.253Z,51.20
2022-09-03T20:13:15.455Z,55.20
2022-09-03T20:16:07.806Z,52.00
2022-09-03T20:19:12.039Z,52.00
2022-09-03T20:22:00.027Z,51.80
2022-09-03T20:24:50.082Z,50.40
2022-09-03T20:27:51.207Z,51.00
2022-09-03T20:30:31.143Z,51.60
2022-09-03T20:33:11.212Z,52.40
2022-09-03T20:35:41.503Z,50.80
2022-09-03T20:38:39.168Z,52.00
2022-09-03T20:41:33.447Z,51.20
2022-09-03T20:44:06.877Z,52.40
2022-09-03T20:47:11.278Z,49.40
2022-09-03T20:50:10.548Z,49.80
2022-09-03T20:52:53.589Z,50.40
2022-09-03T20:55:34.512Z,52.40
2022-09-03T20:58:20.009Z,52.00
2022-09-03T21:00:52.880Z,50.60
2022-09-03T21:03:38.533Z,51.40
2022-09-03T21:06:36.659Z,51.60
2022-09-03T21:09:22.017Z,50.20
2022-09-03T21:11:59.390Z,52.80
2022-09-03T21:14:50.701Z,52.40
2022-09-03T21:17:37.553Z,49.00
2022-09-03T21:20:35.579Z,51.20
2022-09-03T21:23:08.680Z,50.60
2022-09-03T21:26:14.179Z,52.00
2022-09-03T21:28:49.653Z,52.40
2022-09-03T21:31:25.192Z,52.00
2022-09-03T21:34:02.048Z,49.00
2022-09-03T21:36:41.728Z,50.40
2022-09-03T21:39:31.284Z,50.60
2022-09-03T21:42:10.512Z,52.00
2022-09-03T21:44:40.713Z,49.00
2022-09-03T21:47:17.571Z,50.60
2022-09-03T21:50:23.129Z,49.00
2022-09-03T21:53:07.390Z,49.00
2022-09-03T21:55:53.329Z,51.00
2022-09-03T21:59:09.546Z,51.00
2022-09-03T22:02:04.602Z,51.40
2022-09-03T22:04:35.017Z,49.00
2022-09-03T22:07:16.068Z,49.00
2022-09-03T22:10:21.161Z,49.80
2022-09-03T22:13:27.681Z,51.80
2022-09-03T22:16:02.262Z,52.40
2022-09-03T22:18:38.117Z,52.00
2022-09-03T22:21:28.232Z,50.20
2022-09-03T22:24:48.995Z,51.80
2022-09-03T22:27:57.810Z,49.00
2022-09-03T22:30:27.839Z,52.00
2022-09-03T22:33:23.007Z,50.60
2022-09-03T22:36:06.576Z,52.00
2022-09-03T22:38:39.483Z,49.40
2022-09-03T22:41:27.285Z,51.00
2022-09-03T22:44:42.920Z,49.00
2022-09-03T22:47:37.890Z,49.00
2022-09-03T22:50:19.514Z,49.00
2022-09-03T22:53:34.131Z,51.40
2022-09-03T22:56:07.761Z,51.60
2022-09-03T22:58:50.507Z,51.00
2022-09-03T23:01:27.132Z,51.60
2022-09-03T23:04:04.245Z,51.60
2022-09-03T23:06:51.458Z,51.60
2022-09-03T23:09:45.333Z,49.40
2022-09-03T23:12:31.360Z,52.00
2022-09-03T23:15:06.574Z,53.80
2022-09-03T23:17:41.337Z,48.80
2022-09-03T23:20:24.119Z,49.00
2022-09-03T23:23:08.828Z,49.00
2022-09-03T23:25:57.541Z,49.00
2022-09-03T23:28:43.922Z,51.80
2022-09-03T23:31:22.765Z,49.40
2022-09-03T23:33:59.487Z,51.40
2022-09-03T23:37:29.711Z,52.00
2022-09-03T23:40:09.564Z,50.60
2022-09-03T23:43:01.649Z,49.40
2022-09-03T23:46:12.661Z,49.00
2022-09-03T23:49:15.522Z,51.40
2022-09-03T23:52:18.684Z,50.20
2022-09-03T23:55:20.079Z,49.00
2022-09-03T23:58:23.800Z,50.20
